sensor_id;sensor_type;location;lat;lon;timestamp;P1;durP1;ratioP1;P2;durP2;ratioP2
5977;SDS011;3015;51.390;12.256;2022-08-01T00:00:37;7.90;;;7.30;;
5977;SDS011;3015;51.390;12.256;2022-08-01T00:03:02;8.63;;;8.07;;
5977;SDS011;3015;51.390;12.256;2022-08-01T00:05:29;8.80;;;8.10;;
5977;SDS011;3015;51.390;12.256;2022-08-01T00:07:54;9.17;;;8.40;;
5977;SDS011;3015;51.390;12.256;2022-08-01T00:10:20;11.27;;;10.43;;
5977;SDS011;3015;51.390;12.256;2022-08-01T00:12:46;9.70;;;9.00;;
5977;SDS011;3015;51.390;12.256;2022-08-01T00:15:12;10.03;;;9.33;;
5977;SDS011;3015;51.390;12.256;2022-08-01T00:17:40;9.80;;;9.10;;
5977;SDS011;3015;51.390;12.256;2022-08-01T00:20:07;10.87;;;10.07;;
5977;SDS011;3015;51.390;12.256;2022-08-01T00:22:35;10.90;;;10.00;;
5977;SDS011;3015;51.390;12.256;2022-08-01T00:25:01;10.70;;;9.80;;
5977;SDS011;3015;51.390;12.256;2022-08-01T00:27:28;9.00;;;8.30;;
5977;SDS011;3015;51.390;12.256;2022-08-01T00:29:53;10.07;;;9.27;;
5977;SDS011;3015;51.390;12.256;2022-08-01T00:32:19;9.73;;;9.13;;
5977;SDS011;3015;51.390;12.256;2022-08-01T00:34:45;9.00;;;8.30;;
5977;SDS011;3015;51.390;12.256;2022-08-01T00:37:10;9.40;;;8.80;;
5977;SDS011;3015;51.390;12.256;2022-08-01T00:39:36;10.83;;;9.93;;
5977;SDS011;3015;51.390;12.256;2022-08-01T00:42:08;9.80;;;9.10;;
5977;SDS011;3015;51.390;12.256;2022-08-01T00:44:35;9.43;;;8.83;;
5977;SDS011;3015;51.390;12.256;2022-08-01T00:47:01;9.77;;;8.97;;
5977;SDS011;3015;51.390;12.256;2022-08-01T00:49:27;9.63;;;8.90;;
5977;SDS011;3015;51.390;12.256;2022-08-01T00:51:53;9.60;;;8.80;;
5977;SDS011;3015;51.390;12.256;2022-08-01T00:54:19;8.87;;;8.20;;
5977;SDS011;3015;51.390;12.256;2022-08-01T00:56:45;8.37;;;7.80;;
5977;SDS011;3015;51.390;12.256;2022-08-01T00:59:11;8.70;;;8.10;;
5977;SDS011;3015;51.390;12.256;2022-08-01T01:01:38;8.33;;;7.73;;
5977;SDS011;3015;51.390;12.256;2022-08-01T01:04:04;8.83;;;8.23;;
5977;SDS011;3015;51.390;12.256;2022-08-01T01:06:34;8.83;;;8.20;;
5977;SDS011;3015;51.390;12.256;2022-08-01T01:14:39;8.10;;;7.60;;
5977;SDS011;3015;51.390;12.256;2022-08-01T01:17:21;8.93;;;8.43;;
5977;SDS011;3015;51.390;12.256;2022-08-01T01:20:09;9.03;;;8.50;;
5977;SDS011;3015;51.390;12.256;2022-08-01T01:22:53;8.77;;;8.27;;
5977;SDS011;3015;51.390;12.256;2022-08-01T01:31:03;9.67;;;8.87;;
5977;SDS011;3015;51.390;12.256;2022-08-01T01:33:33;9.97;;;9.27;;
5977;SDS011;3015;51.390;12.256;2022-08-01T01:36:03;9.50;;;8.07;;
5977;SDS011;3015;51.390;12.256;2022-08-01T01:38:33;9.20;;;8.50;;
5977;SDS011;3015;51.390;12.256;2022-08-01T01:41:02;9.40;;;8.70;;
5977;SDS011;3015;51.390;12.256;2022-08-01T01:43:29;9.37;;;8.70;;
5977;SDS011;3015;51.390;12.256;2022-08-01T01:45:57;9.17;;;8.37;;
5977;SDS011;3015;51.390;12.256;2022-08-01T01:48:23;8.20;;;7.60;;
5977;SDS011;3015;51.390;12.256;2022-08-01T01:50:51;10.10;;;9.30;;
5977;SDS011;3015;51.390;12.256;2022-08-01T01:53:18;9.40;;;8.80;;
5977;SDS011;3015;51.390;12.256;2022-08-01T01:55:47;8.57;;;8.00;;
5977;SDS011;3015;51.390;12.256;2022-08-01T01:58:17;9.30;;;8.67;;
5977;SDS011;3015;51.390;12.256;2022-08-01T02:00:44;9.77;;;9.00;;
5977;SDS011;3015;51.390;12.256;2022-08-01T02:03:12;8.40;;;7.87;;
5977;SDS011;3015;51.390;12.256;2022-08-01T02:05:39;8.00;;;7.50;;
5977;SDS011;3015;51.390;12.256;2022-08-01T02:08:07;10.47;;;9.07;;
5977;SDS011;3015;51.390;12.256;2022-08-01T02:10:36;8.47;;;7.90;;
5977;SDS011;3015;51.390;12.256;2022-08-01T02:13:04;7.67;;;7.17;;
5977;SDS011;3015;51.390;12.256;2022-08-01T02:15:31;8.07;;;7.47;;
5977;SDS011;3015;51.390;12.256;2022-08-01T02:17:59;8.33;;;7.77;;
5977;SDS011;3015;51.390;12.256;2022-08-01T02:20:27;7.90;;;7.40;;
5977;SDS011;3015;51.390;12.256;2022-08-01T02:22:56;8.93;;;8.33;;
5977;SDS011;3015;51.390;12.256;2022-08-01T02:25:38;7.80;;;7.23;;
5977;SDS011;3015;51.390;12.256;2022-08-01T02:28:52;7.37;;;6.80;;
5977;SDS011;3015;51.390;12.256;2022-08-01T02:31:04;8.00;;;7.40;;
5977;SDS011;3015;51.390;12.256;2022-08-01T02:33:38;7.40;;;6.90;;
5977;SDS011;3015;51.390;12.256;2022-08-01T02:36:10;7.50;;;7.00;;
5977;SDS011;3015;51.390;12.256;2022-08-01T02:38:40;7.83;;;7.33;;
5977;SDS011;3015;51.390;12.256;2022-08-01T02:41:09;7.60;;;7.10;;
5977;SDS011;3015;51.390;12.256;2022-08-01T02:43:38;8.03;;;7.43;;
5977;SDS011;3015;51.390;12.256;2022-08-01T02:46:08;7.87;;;7.17;;
5977;SDS011;3015;51.390;12.256;2022-08-01T02:48:39;8.67;;;7.97;;
5977;SDS011;3015;51.390;12.256;2022-08-01T02:51:06;8.30;;;7.80;;
5977;SDS011;3015;51.390;12.256;2022-08-01T02:53:33;7.83;;;7.23;;
5977;SDS011;3015;51.390;12.256;2022-08-01T02:56:04;7.70;;;7.20;;
5977;SDS011;3015;51.390;12.256;2022-08-01T02:58:31;7.13;;;6.67;;
5977;SDS011;3015;51.390;12.256;2022-08-01T03:01:00;7.53;;;6.87;;
5977;SDS011;3015;51.390;12.256;2022-08-01T03:03:28;7.93;;;7.33;;
5977;SDS011;3015;51.390;12.256;2022-08-01T03:05:54;8.10;;;7.50;;
5977;SDS011;3015;51.390;12.256;2022-08-01T03:08:21;7.10;;;6.60;;
5977;SDS011;3015;51.390;12.256;2022-08-01T03:10:48;6.70;;;6.27;;
5977;SDS011;3015;51.390;12.256;2022-08-01T03:13:16;7.30;;;6.73;;
5977;SDS011;3015;51.390;12.256;2022-08-01T03:15:43;6.80;;;6.20;;
5977;SDS011;3015;51.390;12.256;2022-08-01T03:18:10;7.73;;;7.33;;
5977;SDS011;3015;51.390;12.256;2022-08-01T03:20:38;7.30;;;6.70;;
5977;SDS011;3015;51.390;12.256;2022-08-01T03:23:05;7.37;;;6.87;;
5977;SDS011;3015;51.390;12.256;2022-08-01T03:25:34;7.37;;;6.80;;
5977;SDS011;3015;51.390;12.256;2022-08-01T03:28:03;6.83;;;6.23;;
5977;SDS011;3015;51.390;12.256;2022-08-01T03:30:31;6.13;;;5.73;;
5977;SDS011;3015;51.390;12.256;2022-08-01T03:32:58;7.03;;;6.53;;
5977;SDS011;3015;51.390;12.256;2022-08-01T03:35:30;6.40;;;6.10;;
5977;SDS011;3015;51.390;12.256;2022-08-01T03:37:59;6.80;;;6.20;;
5977;SDS011;3015;51.390;12.256;2022-08-01T03:40:43;6.70;;;6.30;;
5977;SDS011;3015;51.390;12.256;2022-08-01T03:45:58;6.60;;;6.13;;
5977;SDS011;3015;51.390;12.256;2022-08-01T03:48:29;6.50;;;6.10;;
5977;SDS011;3015;51.390;12.256;2022-08-01T03:50:59;6.63;;;6.23;;
5977;SDS011;3015;51.390;12.256;2022-08-01T03:53:28;6.00;;;5.27;;
5977;SDS011;3015;51.390;12.256;2022-08-01T03:55:57;6.67;;;6.27;;
5977;SDS011;3015;51.390;12.256;2022-08-01T03:58:24;6.17;;;5.77;;
5977;SDS011;3015;51.390;12.256;2022-08-01T04:00:51;5.93;;;5.40;;
5977;SDS011;3015;51.390;12.256;2022-08-01T04:03:17;6.50;;;6.00;;
5977;SDS011;3015;51.390;12.256;2022-08-01T04:05:43;5.50;;;5.10;;
5977;SDS011;3015;51.390;12.256;2022-08-01T04:08:09;7.00;;;5.30;;
5977;SDS011;3015;51.390;12.256;2022-08-01T04:10:36;6.00;;;5.43;;
5977;SDS011;3015;51.390;12.256;2022-08-01T04:13:02;5.73;;;5.43;;
5977;SDS011;3015;51.390;12.256;2022-08-01T04:15:28;5.07;;;4.77;;
5977;SDS011;3015;51.390;12.256;2022-08-01T04:17:54;5.20;;;4.90;;
5977;SDS011;3015;51.390;12.256;2022-08-01T04:20:20;5.33;;;4.93;;
5977;SDS011;3015;51.390;12.256;2022-08-01T04:22:46;5.77;;;5.27;;
5977;SDS011;3015;51.390;12.256;2022-08-01T04:25:25;5.50;;;5.10;;
5977;SDS011;3015;51.390;12.256;2022-08-01T04:27:54;4.77;;;4.47;;
5977;SDS011;3015;51.390;12.256;2022-08-01T04:30:29;5.03;;;4.73;;
5977;SDS011;3015;51.390;12.256;2022-08-01T04:32:59;5.30;;;4.90;;
5977;SDS011;3015;51.390;12.256;2022-08-01T04:35:26;5.37;;;5.07;;
5977;SDS011;3015;51.390;12.256;2022-08-01T04:37:53;5.63;;;5.13;;
5977;SDS011;3015;51.390;12.256;2022-08-01T04:40:19;5.03;;;4.73;;
5977;SDS011;3015;51.390;12.256;2022-08-01T04:42:51;5.17;;;4.77;;
5977;SDS011;3015;51.390;12.256;2022-08-01T04:45:16;4.97;;;4.57;;
5977;SDS011;3015;51.390;12.256;2022-08-01T04:47:43;5.20;;;4.80;;
5977;SDS011;3015;51.390;12.256;2022-08-01T04:50:10;4.70;;;4.40;;
5977;SDS011;3015;51.390;12.256;2022-08-01T04:52:37;4.80;;;4.47;;
5977;SDS011;3015;51.390;12.256;2022-08-01T04:55:03;5.13;;;4.77;;
5977;SDS011;3015;51.390;12.256;2022-08-01T04:57:36;5.20;;;4.90;;
5977;SDS011;3015;51.390;12.256;2022-08-01T05:00:04;5.20;;;4.90;;
5977;SDS011;3015;51.390;12.256;2022-08-01T05:02:31;5.03;;;4.67;;
5977;SDS011;3015;51.390;12.256;2022-08-01T05:04:57;5.20;;;4.80;;
5977;SDS011;3015;51.390;12.256;2022-08-01T05:07:23;4.43;;;4.17;;
5977;SDS011;3015;51.390;12.256;2022-08-01T05:09:49;5.23;;;4.90;;
5977;SDS011;3015;51.390;12.256;2022-08-01T05:12:15;4.50;;;4.20;;
5977;SDS011;3015;51.390;12.256;2022-08-01T05:14:41;5.10;;;4.80;;
5977;SDS011;3015;51.390;12.256;2022-08-01T05:17:07;5.20;;;4.53;;
5977;SDS011;3015;51.390;12.256;2022-08-01T05:19:33;4.57;;;4.27;;
5977;SDS011;3015;51.390;12.256;2022-08-01T05:22:01;5.23;;;3.90;;
5977;SDS011;3015;51.390;12.256;2022-08-01T05:24:31;4.27;;;4.07;;
5977;SDS011;3015;51.390;12.256;2022-08-01T05:26:57;4.53;;;4.23;;
5977;SDS011;3015;51.390;12.256;2022-08-01T05:29:24;4.87;;;4.33;;
5977;SDS011;3015;51.390;12.256;2022-08-01T05:31:51;4.57;;;4.37;;
5977;SDS011;3015;51.390;12.256;2022-08-01T05:34:17;4.83;;;4.53;;
5977;SDS011;3015;51.390;12.256;2022-08-01T05:36:43;4.90;;;4.47;;
5977;SDS011;3015;51.390;12.256;2022-08-01T05:39:09;4.70;;;4.40;;
5977;SDS011;3015;51.390;12.256;2022-08-01T05:41:35;4.90;;;4.60;;
5977;SDS011;3015;51.390;12.256;2022-08-01T05:44:02;4.90;;;4.40;;
5977;SDS011;3015;51.390;12.256;2022-08-01T05:46:28;5.60;;;4.60;;
5977;SDS011;3015;51.390;12.256;2022-08-01T05:48:55;4.87;;;4.57;;
5977;SDS011;3015;51.390;12.256;2022-08-01T05:51:21;4.97;;;4.47;;
5977;SDS011;3015;51.390;12.256;2022-08-01T05:53:48;4.57;;;4.27;;
5977;SDS011;3015;51.390;12.256;2022-08-01T05:56:13;4.70;;;4.13;;
5977;SDS011;3015;51.390;12.256;2022-08-01T05:58:39;4.97;;;4.67;;
5977;SDS011;3015;51.390;12.256;2022-08-01T06:01:05;4.50;;;4.20;;
5977;SDS011;3015;51.390;12.256;2022-08-01T06:03:30;4.17;;;3.97;;
5977;SDS011;3015;51.390;12.256;2022-08-01T06:05:58;3.63;;;3.47;;
5977;SDS011;3015;51.390;12.256;2022-08-01T06:08:27;4.17;;;3.97;;
5977;SDS011;3015;51.390;12.256;2022-08-01T06:10:53;4.50;;;4.23;;
5977;SDS011;3015;51.390;12.256;2022-08-01T06:13:19;4.93;;;3.60;;
5977;SDS011;3015;51.390;12.256;2022-08-01T06:15:45;3.93;;;3.73;;
5977;SDS011;3015;51.390;12.256;2022-08-01T06:18:11;3.60;;;3.30;;
5977;SDS011;3015;51.390;12.256;2022-08-01T06:20:37;3.53;;;3.23;;
5977;SDS011;3015;51.390;12.256;2022-08-01T06:23:02;3.83;;;3.63;;
5977;SDS011;3015;51.390;12.256;2022-08-01T06:25:28;3.40;;;3.20;;
5977;SDS011;3015;51.390;12.256;2022-08-01T06:27:54;3.23;;;2.93;;
5977;SDS011;3015;51.390;12.256;2022-08-01T06:30:20;3.73;;;3.53;;
5977;SDS011;3015;51.390;12.256;2022-08-01T06:32:46;3.37;;;3.17;;
5977;SDS011;3015;51.390;12.256;2022-08-01T06:35:12;3.23;;;3.13;;
5977;SDS011;3015;51.390;12.256;2022-08-01T06:37:38;2.73;;;2.63;;
5977;SDS011;3015;51.390;12.256;2022-08-01T06:40:04;3.67;;;3.30;;
5977;SDS011;3015;51.390;12.256;2022-08-01T06:42:32;3.43;;;3.17;;
5977;SDS011;3015;51.390;12.256;2022-08-01T06:45:04;2.73;;;2.50;;
5977;SDS011;3015;51.390;12.256;2022-08-01T06:47:31;2.63;;;2.53;;
5977;SDS011;3015;51.390;12.256;2022-08-01T06:49:56;3.57;;;2.90;;
5977;SDS011;3015;51.390;12.256;2022-08-01T06:52:22;2.90;;;2.70;;
5977;SDS011;3015;51.390;12.256;2022-08-01T06:54:47;2.90;;;2.80;;
5977;SDS011;3015;51.390;12.256;2022-08-01T06:57:13;2.43;;;2.23;;
5977;SDS011;3015;51.390;12.256;2022-08-01T06:59:39;5.53;;;3.00;;
5977;SDS011;3015;51.390;12.256;2022-08-01T07:02:05;3.37;;;2.70;;
5977;SDS011;3015;51.390;12.256;2022-08-01T07:04:31;2.63;;;2.50;;
5977;SDS011;3015;51.390;12.256;2022-08-01T07:06:57;3.77;;;3.10;;
5977;SDS011;3015;51.390;12.256;2022-08-01T07:09:23;5.43;;;3.47;;
5977;SDS011;3015;51.390;12.256;2022-08-01T07:11:49;2.87;;;2.20;;
5977;SDS011;3015;51.390;12.256;2022-08-01T07:14:15;2.70;;;2.50;;
5977;SDS011;3015;51.390;12.256;2022-08-01T07:16:41;2.40;;;2.20;;
5977;SDS011;3015;51.390;12.256;2022-08-01T07:19:06;2.57;;;2.30;;
5977;SDS011;3015;51.390;12.256;2022-08-01T07:21:33;3.53;;;2.40;;
5977;SDS011;3015;51.390;12.256;2022-08-01T07:23:58;2.30;;;2.20;;
5977;SDS011;3015;51.390;12.256;2022-08-01T07:26:24;2.73;;;2.63;;
5977;SDS011;3015;51.390;12.256;2022-08-01T07:28:49;2.40;;;2.30;;
5977;SDS011;3015;51.390;12.256;2022-08-01T07:31:15;2.80;;;2.60;;
5977;SDS011;3015;51.390;12.256;2022-08-01T07:33:41;5.37;;;3.37;;
5977;SDS011;3015;51.390;12.256;2022-08-01T07:36:06;3.40;;;3.20;;
5977;SDS011;3015;51.390;12.256;2022-08-01T07:38:32;2.73;;;2.53;;
5977;SDS011;3015;51.390;12.256;2022-08-01T07:40:58;2.80;;;2.67;;
5977;SDS011;3015;51.390;12.256;2022-08-01T07:43:23;3.93;;;2.90;;
5977;SDS011;3015;51.390;12.256;2022-08-01T07:45:49;2.83;;;2.63;;
5977;SDS011;3015;51.390;12.256;2022-08-01T07:48:14;4.37;;;2.60;;
5977;SDS011;3015;51.390;12.256;2022-08-01T07:50:40;2.37;;;2.27;;
5977;SDS011;3015;51.390;12.256;2022-08-01T07:53:06;2.47;;;2.37;;
5977;SDS011;3015;51.390;12.256;2022-08-01T07:55:31;2.57;;;2.37;;
5977;SDS011;3015;51.390;12.256;2022-08-01T07:57:57;3.20;;;3.00;;
5977;SDS011;3015;51.390;12.256;2022-08-01T08:00:23;3.70;;;2.87;;
5977;SDS011;3015;51.390;12.256;2022-08-01T08:02:48;3.00;;;2.80;;
5977;SDS011;3015;51.390;12.256;2022-08-01T08:05:14;2.57;;;2.40;;
5977;SDS011;3015;51.390;12.256;2022-08-01T08:07:40;2.90;;;2.60;;
5977;SDS011;3015;51.390;12.256;2022-08-01T08:10:05;2.53;;;2.43;;
5977;SDS011;3015;51.390;12.256;2022-08-01T08:12:31;3.07;;;2.83;;
5977;SDS011;3015;51.390;12.256;2022-08-01T08:14:57;2.57;;;2.37;;
5977;SDS011;3015;51.390;12.256;2022-08-01T08:17:24;3.23;;;2.10;;
5977;SDS011;3015;51.390;12.256;2022-08-01T08:19:50;2.50;;;2.40;;
5977;SDS011;3015;51.390;12.256;2022-08-01T08:22:15;2.47;;;2.27;;
5977;SDS011;3015;51.390;12.256;2022-08-01T08:24:41;2.90;;;2.70;;
5977;SDS011;3015;51.390;12.256;2022-08-01T08:27:07;2.50;;;2.40;;
5977;SDS011;3015;51.390;12.256;2022-08-01T08:29:32;2.43;;;2.30;;
5977;SDS011;3015;51.390;12.256;2022-08-01T08:31:58;2.47;;;2.37;;
5977;SDS011;3015;51.390;12.256;2022-08-01T08:34:25;2.53;;;2.43;;
5977;SDS011;3015;51.390;12.256;2022-08-01T08:36:53;2.20;;;2.10;;
5977;SDS011;3015;51.390;12.256;2022-08-01T08:39:20;2.37;;;2.17;;
5977;SDS011;3015;51.390;12.256;2022-08-01T08:41:47;2.97;;;2.77;;
5977;SDS011;3015;51.390;12.256;2022-08-01T08:44:13;2.10;;;2.00;;
5977;SDS011;3015;51.390;12.256;2022-08-01T08:46:41;2.10;;;2.00;;
5977;SDS011;3015;51.390;12.256;2022-08-01T08:49:09;1.97;;;1.87;;
5977;SDS011;3015;51.390;12.256;2022-08-01T08:51:38;1.70;;;1.60;;
5977;SDS011;3015;51.390;12.256;2022-08-01T08:54:04;3.47;;;1.60;;
5977;SDS011;3015;51.390;12.256;2022-08-01T08:56:32;1.40;;;1.40;;
5977;SDS011;3015;51.390;12.256;2022-08-01T08:59:00;1.20;;;1.20;;
5977;SDS011;3015;51.390;12.256;2022-08-01T09:01:27;1.40;;;1.30;;
5977;SDS011;3015;51.390;12.256;2022-08-01T09:03:53;1.37;;;1.37;;
5977;SDS011;3015;51.390;12.256;2022-08-01T09:06:19;1.50;;;1.40;;
5977;SDS011;3015;51.390;12.256;2022-08-01T09:08:45;2.17;;;1.30;;
5977;SDS011;3015;51.390;12.256;2022-08-01T09:11:11;1.40;;;1.30;;
5977;SDS011;3015;51.390;12.256;2022-08-01T09:13:37;1.20;;;1.20;;
5977;SDS011;3015;51.390;12.256;2022-08-01T09:16:02;1.00;;;1.00;;
5977;SDS011;3015;51.390;12.256;2022-08-01T09:18:38;1.30;;;1.30;;
5977;SDS011;3015;51.390;12.256;2022-08-01T09:23:32;1.00;;;1.00;;
5977;SDS011;3015;51.390;12.256;2022-08-01T09:25:58;1.67;;;1.13;;
5977;SDS011;3015;51.390;12.256;2022-08-01T09:28:28;1.60;;;1.50;;
5977;SDS011;3015;51.390;12.256;2022-08-01T09:30:55;2.00;;;1.90;;
5977;SDS011;3015;51.390;12.256;2022-08-01T09:33:21;1.40;;;1.40;;
5977;SDS011;3015;51.390;12.256;2022-08-01T09:35:54;1.57;;;1.50;;
5977;SDS011;3015;51.390;12.256;2022-08-01T09:38:21;1.90;;;1.80;;
5977;SDS011;3015;51.390;12.256;2022-08-01T09:43:19;1.73;;;1.63;;
5977;SDS011;3015;51.390;12.256;2022-08-01T09:45:45;1.60;;;1.50;;
5977;SDS011;3015;51.390;12.256;2022-08-01T09:48:12;1.27;;;1.17;;
5977;SDS011;3015;51.390;12.256;2022-08-01T09:50:38;1.13;;;1.13;;
5977;SDS011;3015;51.390;12.256;2022-08-01T09:53:05;1.50;;;1.40;;
5977;SDS011;3015;51.390;12.256;2022-08-01T09:55:31;1.20;;;1.20;;
5977;SDS011;3015;51.390;12.256;2022-08-01T09:57:57;1.30;;;1.30;;
5977;SDS011;3015;51.390;12.256;2022-08-01T10:00:25;1.27;;;1.27;;
5977;SDS011;3015;51.390;12.256;2022-08-01T10:02:51;1.50;;;1.40;;
5977;SDS011;3015;51.390;12.256;2022-08-01T10:05:17;1.30;;;1.30;;
5977;SDS011;3015;51.390;12.256;2022-08-01T10:07:54;1.87;;;1.77;;
5977;SDS011;3015;51.390;12.256;2022-08-01T10:10:21;2.00;;;1.90;;
5977;SDS011;3015;51.390;12.256;2022-08-01T10:12:48;2.23;;;2.13;;
5977;SDS011;3015;51.390;12.256;2022-08-01T10:15:17;1.90;;;1.80;;
5977;SDS011;3015;51.390;12.256;2022-08-01T10:17:52;2.20;;;2.10;;
5977;SDS011;3015;51.390;12.256;2022-08-01T10:20:20;2.43;;;2.30;;
5977;SDS011;3015;51.390;12.256;2022-08-01T10:22:51;2.30;;;2.20;;
5977;SDS011;3015;51.390;12.256;2022-08-01T10:25:18;2.30;;;2.20;;
5977;SDS011;3015;51.390;12.256;2022-08-01T10:27:46;3.10;;;2.30;;
5977;SDS011;3015;51.390;12.256;2022-08-01T10:30:14;2.97;;;2.87;;
5977;SDS011;3015;51.390;12.256;2022-08-01T10:32:40;3.03;;;2.90;;
5977;SDS011;3015;51.390;12.256;2022-08-01T10:35:07;2.50;;;2.30;;
5977;SDS011;3015;51.390;12.256;2022-08-01T10:37:34;2.80;;;2.70;;
5977;SDS011;3015;51.390;12.256;2022-08-01T10:40:00;3.23;;;3.13;;
5977;SDS011;3015;51.390;12.256;2022-08-01T10:42:26;2.40;;;2.30;;
5977;SDS011;3015;51.390;12.256;2022-08-01T10:44:53;2.83;;;2.73;;
5977;SDS011;3015;51.390;12.256;2022-08-01T10:47:21;2.90;;;2.80;;
5977;SDS011;3015;51.390;12.256;2022-08-01T10:52:41;3.27;;;3.07;;
5977;SDS011;3015;51.390;12.256;2022-08-01T10:55:07;3.13;;;2.93;;
5977;SDS011;3015;51.390;12.256;2022-08-01T10:57:45;2.93;;;2.80;;
5977;SDS011;3015;51.390;12.256;2022-08-01T11:00:19;2.63;;;2.53;;
5977;SDS011;3015;51.390;12.256;2022-08-01T11:02:59;2.20;;;2.10;;
5977;SDS011;3015;51.390;12.256;2022-08-01T11:05:26;2.60;;;2.50;;
5977;SDS011;3015;51.390;12.256;2022-08-01T11:07:55;1.43;;;1.43;;
5977;SDS011;3015;51.390;12.256;2022-08-01T11:13:10;2.53;;;2.43;;
5977;SDS011;3015;51.390;12.256;2022-08-01T11:15:39;2.70;;;2.60;;
5977;SDS011;3015;51.390;12.256;2022-08-01T11:20:56;2.30;;;2.20;;
5977;SDS011;3015;51.390;12.256;2022-08-01T11:23:24;2.20;;;2.10;;
5977;SDS011;3015;51.390;12.256;2022-08-01T11:28:21;2.30;;;2.20;;
5977;SDS011;3015;51.390;12.256;2022-08-01T11:31:34;2.77;;;2.57;;
5977;SDS011;3015;51.390;12.256;2022-08-01T11:36:16;2.97;;;2.87;;
5977;SDS011;3015;51.390;12.256;2022-08-01T11:41:12;3.50;;;3.20;;
5977;SDS011;3015;51.390;12.256;2022-08-01T11:54:31;3.10;;;3.00;;
5977;SDS011;3015;51.390;12.256;2022-08-01T11:56:59;2.90;;;2.80;;
5977;SDS011;3015;51.390;12.256;2022-08-01T11:59:31;3.30;;;3.20;;
5977;SDS011;3015;51.390;12.256;2022-08-01T12:02:01;3.33;;;3.13;;
5977;SDS011;3015;51.390;12.256;2022-08-01T12:04:43;3.63;;;3.30;;
5977;SDS011;3015;51.390;12.256;2022-08-01T12:07:13;3.23;;;3.13;;
5977;SDS011;3015;51.390;12.256;2022-08-01T12:09:40;3.57;;;3.30;;
5977;SDS011;3015;51.390;12.256;2022-08-01T12:12:05;3.40;;;3.03;;
5977;SDS011;3015;51.390;12.256;2022-08-01T12:14:32;4.47;;;3.00;;
5977;SDS011;3015;51.390;12.256;2022-08-01T12:16:57;3.70;;;3.50;;
5977;SDS011;3015;51.390;12.256;2022-08-01T12:19:24;3.40;;;3.30;;
5977;SDS011;3015;51.390;12.256;2022-08-01T12:24:51;3.10;;;3.00;;
5977;SDS011;3015;51.390;12.256;2022-08-01T12:27:30;3.30;;;3.20;;
5977;SDS011;3015;51.390;12.256;2022-08-01T12:29:56;2.50;;;2.40;;
5977;SDS011;3015;51.390;12.256;2022-08-01T12:34:56;2.60;;;2.50;;
5977;SDS011;3015;51.390;12.256;2022-08-01T12:37:26;3.10;;;2.77;;
5977;SDS011;3015;51.390;12.256;2022-08-01T12:39:51;2.33;;;2.23;;
5977;SDS011;3015;51.390;12.256;2022-08-01T12:42:18;2.70;;;2.50;;
5977;SDS011;3015;51.390;12.256;2022-08-01T12:44:44;3.07;;;2.97;;
5977;SDS011;3015;51.390;12.256;2022-08-01T12:47:14;3.00;;;2.90;;
5977;SDS011;3015;51.390;12.256;2022-08-01T12:49:43;2.90;;;2.70;;
5977;SDS011;3015;51.390;12.256;2022-08-01T12:52:30;3.03;;;2.93;;
5977;SDS011;3015;51.390;12.256;2022-08-01T12:55:01;2.63;;;2.53;;
5977;SDS011;3015;51.390;12.256;2022-08-01T12:57:27;2.73;;;2.63;;
5977;SDS011;3015;51.390;12.256;2022-08-01T13:00:03;2.50;;;2.40;;
5977;SDS011;3015;51.390;12.256;2022-08-01T13:02:31;3.20;;;3.00;;
5977;SDS011;3015;51.390;12.256;2022-08-01T13:04:58;3.10;;;3.00;;
5977;SDS011;3015;51.390;12.256;2022-08-01T13:07:34;3.20;;;2.90;;
5977;SDS011;3015;51.390;12.256;2022-08-01T13:10:01;3.37;;;3.17;;
5977;SDS011;3015;51.390;12.256;2022-08-01T13:12:27;3.27;;;3.10;;
5977;SDS011;3015;51.390;12.256;2022-08-01T13:14:52;3.73;;;3.53;;
5977;SDS011;3015;51.390;12.256;2022-08-01T13:17:31;3.20;;;3.00;;
5977;SDS011;3015;51.390;12.256;2022-08-01T13:19:57;2.63;;;2.43;;
5977;SDS011;3015;51.390;12.256;2022-08-01T13:22:33;2.47;;;2.37;;
5977;SDS011;3015;51.390;12.256;2022-08-01T13:25:12;2.70;;;2.50;;
5977;SDS011;3015;51.390;12.256;2022-08-01T13:27:39;2.20;;;2.10;;
5977;SDS011;3015;51.390;12.256;2022-08-01T13:30:12;2.50;;;2.40;;
5977;SDS011;3015;51.390;12.256;2022-08-01T13:32:43;2.40;;;2.30;;
5977;SDS011;3015;51.390;12.256;2022-08-01T13:35:29;2.30;;;2.20;;
5977;SDS011;3015;51.390;12.256;2022-08-01T13:37:54;3.40;;;2.57;;
5977;SDS011;3015;51.390;12.256;2022-08-01T13:40:25;2.97;;;2.20;;
5977;SDS011;3015;51.390;12.256;2022-08-01T13:42:52;2.47;;;2.37;;
5977;SDS011;3015;51.390;12.256;2022-08-01T13:45:20;2.03;;;1.93;;
5977;SDS011;3015;51.390;12.256;2022-08-01T13:47:46;2.30;;;2.20;;
5977;SDS011;3015;51.390;12.256;2022-08-01T13:50:11;2.17;;;2.07;;
5977;SDS011;3015;51.390;12.256;2022-08-01T13:52:37;1.97;;;1.87;;
5977;SDS011;3015;51.390;12.256;2022-08-01T13:55:03;1.90;;;1.80;;
5977;SDS011;3015;51.390;12.256;2022-08-01T13:57:29;2.17;;;2.07;;
5977;SDS011;3015;51.390;12.256;2022-08-01T13:59:54;1.90;;;1.80;;
5977;SDS011;3015;51.390;12.256;2022-08-01T14:02:20;1.70;;;1.60;;
5977;SDS011;3015;51.390;12.256;2022-08-01T14:04:46;2.23;;;2.13;;
5977;SDS011;3015;51.390;12.256;2022-08-01T14:07:12;2.30;;;2.20;;
5977;SDS011;3015;51.390;12.256;2022-08-01T14:09:38;2.20;;;2.00;;
5977;SDS011;3015;51.390;12.256;2022-08-01T14:12:04;2.07;;;1.93;;
5977;SDS011;3015;51.390;12.256;2022-08-01T14:14:29;2.10;;;2.00;;
5977;SDS011;3015;51.390;12.256;2022-08-01T14:16:55;1.90;;;1.80;;
5977;SDS011;3015;51.390;12.256;2022-08-01T14:19:21;2.07;;;1.97;;
5977;SDS011;3015;51.390;12.256;2022-08-01T14:21:47;2.00;;;1.90;;
5977;SDS011;3015;51.390;12.256;2022-08-01T14:24:12;2.13;;;2.03;;
5977;SDS011;3015;51.390;12.256;2022-08-01T14:26:38;2.27;;;2.17;;
5977;SDS011;3015;51.390;12.256;2022-08-01T14:29:04;2.40;;;2.30;;
5977;SDS011;3015;51.390;12.256;2022-08-01T14:31:29;2.47;;;2.37;;
5977;SDS011;3015;51.390;12.256;2022-08-01T14:33:55;2.17;;;2.07;;
5977;SDS011;3015;51.390;12.256;2022-08-01T14:36:21;3.03;;;2.77;;
5977;SDS011;3015;51.390;12.256;2022-08-01T14:38:46;3.37;;;3.20;;
5977;SDS011;3015;51.390;12.256;2022-08-01T14:41:13;3.03;;;2.93;;
5977;SDS011;3015;51.390;12.256;2022-08-01T14:43:39;3.00;;;2.80;;
5977;SDS011;3015;51.390;12.256;2022-08-01T14:46:04;3.63;;;3.47;;
5977;SDS011;3015;51.390;12.256;2022-08-01T14:48:30;3.33;;;3.13;;
5977;SDS011;3015;51.390;12.256;2022-08-01T14:50:57;3.80;;;3.70;;
5977;SDS011;3015;51.390;12.256;2022-08-01T14:53:25;4.20;;;3.80;;
5977;SDS011;3015;51.390;12.256;2022-08-01T14:55:50;3.73;;;3.60;;
5977;SDS011;3015;51.390;12.256;2022-08-01T14:58:16;4.27;;;3.90;;
5977;SDS011;3015;51.390;12.256;2022-08-01T15:00:42;4.23;;;3.93;;
5977;SDS011;3015;51.390;12.256;2022-08-01T15:03:07;4.13;;;3.83;;
5977;SDS011;3015;51.390;12.256;2022-08-01T15:05:33;4.30;;;4.10;;
5977;SDS011;3015;51.390;12.256;2022-08-01T15:07:59;4.20;;;4.00;;
5977;SDS011;3015;51.390;12.256;2022-08-01T15:10:24;5.00;;;4.70;;
5977;SDS011;3015;51.390;12.256;2022-08-01T15:12:50;4.77;;;4.57;;
5977;SDS011;3015;51.390;12.256;2022-08-01T15:15:16;5.17;;;4.77;;
5977;SDS011;3015;51.390;12.256;2022-08-01T15:17:41;5.10;;;4.90;;
5977;SDS011;3015;51.390;12.256;2022-08-01T15:20:07;5.10;;;4.80;;
5977;SDS011;3015;51.390;12.256;2022-08-01T15:22:33;4.37;;;4.17;;
5977;SDS011;3015;51.390;12.256;2022-08-01T15:24:59;5.33;;;5.10;;
5977;SDS011;3015;51.390;12.256;2022-08-01T15:27:26;4.77;;;4.57;;
5977;SDS011;3015;51.390;12.256;2022-08-01T15:29:53;5.20;;;5.00;;
5977;SDS011;3015;51.390;12.256;2022-08-01T15:32:21;4.87;;;4.67;;
5977;SDS011;3015;51.390;12.256;2022-08-01T15:34:47;4.17;;;3.97;;
5977;SDS011;3015;51.390;12.256;2022-08-01T15:37:13;4.03;;;3.83;;
5977;SDS011;3015;51.390;12.256;2022-08-01T15:39:39;3.43;;;3.33;;
5977;SDS011;3015;51.390;12.256;2022-08-01T15:42:10;3.90;;;3.70;;
5977;SDS011;3015;51.390;12.256;2022-08-01T15:44:40;3.03;;;2.93;;
5977;SDS011;3015;51.390;12.256;2022-08-01T15:47:06;3.47;;;3.27;;
5977;SDS011;3015;51.390;12.256;2022-08-01T15:49:32;3.43;;;3.23;;
5977;SDS011;3015;51.390;12.256;2022-08-01T15:52:00;3.00;;;2.80;;
5977;SDS011;3015;51.390;12.256;2022-08-01T15:54:26;3.53;;;3.23;;